Time;durP1;ratioP1;P1;durP2;ratioP2;P2;SDS_P1;SDS_P2;PMS_P1;PMS_P2;Temp;Humidity;BMP_temperature;BMP_pressure;BME280_temperature;BME280_humidity;BME280_pressure;Samples;Min_cycle;Max_cycle;Signal;HPM_P1;HPM_P2
2023/01/24 00:02:25;;;;;;;57.20;30.90;;;;;;;4.08;70.87;102329.31;4995765;27;96906;-83
2023/01/24 00:04:51;;;;;;;56.30;27.70;;;;;;;3.96;70.45;102303.03;5013016;27;97801;-79
2023/01/24 00:07:16;;;;;;;51.97;28.93;;;;;;;4.14;70.37;102318.19;5025241;27;101943;-80
2023/01/24 00:09:42;;;;;;;53.20;29.57;;;;;;;3.98;70.93;102296.13;5025281;27;101147;-83
2023/01/24 00:12:08;;;;;;;52.90;30.47;;;;;;;4.07;70.75;102313.69;5019579;27;96810;-81
2023/01/24 00:14:33;;;;;;;58.27;30.30;;;;;;;4.15;70.82;102314.75;5001118;27;96914;-79
2023/01/24 00:16:59;;;;;;;56.00;30.73;;;;;;;4.18;70.45;102327.81;5003686;27;101433;-80
2023/01/24 00:19:24;;;;;;;54.43;29.93;;;;;;;3.98;70.59;102290.06;5026027;27;100930;-84
2023/01/24 00:21:50;;;;;;;56.87;30.63;;;;;;;4.11;70.76;102315.53;5001052;28;97125;-79
2023/01/24 00:24:15;;;;;;;52.70;29.83;;;;;;;4.08;70.43;102305.06;4984330;28;96860;-79
2023/01/24 00:26:41;;;;;;;58.03;32.40;;;;;;;4.18;70.81;102316.53;5036530;27;101601;-79
2023/01/24 00:29:07;;;;;;;53.93;29.60;;;;;;;4.21;70.35;102321.81;5025946;28;101571;-81
2023/01/24 00:31:33;;;;;;;58.33;32.07;;;;;;;4.21;70.49;102324.41;4993902;28;96922;-81
2023/01/24 00:33:58;;;;;;;56.63;31.73;;;;;;;4.13;70.60;102316.44;5035171;27;97338;-80
2023/01/24 00:36:24;;;;;;;54.43;30.73;;;;;;;4.09;70.82;102309.41;5006920;28;101087;-80
2023/01/24 00:38:50;;;;;;;57.23;30.20;;;;;;;3.92;70.80;102283.00;5009064;28;101385;-79
2023/01/24 00:41:15;;;;;;;59.63;31.53;;;;;;;4.08;71.23;102318.06;5002172;28;97123;-80
2023/01/24 00:43:41;;;;;;;59.07;30.53;;;;;;;4.06;70.80;102311.94;4999799;28;96773;-80
2023/01/24 00:46:07;;;;;;;55.07;30.77;;;;;;;4.17;71.09;102326.06;5034136;27;101180;-81
2023/01/24 00:48:33;;;;;;;59.23;33.30;;;;;;;4.15;70.81;102334.66;5015274;28;101408;-81
2023/01/24 00:50:59;;;;;;;56.60;30.60;;;;;;;4.01;70.94;102314.41;4990152;28;97961;-80
2023/01/24 00:53:26;;;;;;;60.80;32.43;;;;;;;4.01;71.32;102330.00;4996388;28;97185;-85
2023/01/24 00:55:52;;;;;;;58.70;32.10;;;;;;;4.03;71.48;102330.91;4996129;27;102173;-80
2023/01/24 00:58:18;;;;;;;54.20;30.20;;;;;;;4.11;71.55;102344.13;5004151;28;101892;-80
2023/01/24 01:00:44;;;;;;;65.17;33.43;;;;;;;4.02;71.25;102326.56;5013045;28;96752;-80
2023/01/24 01:03:18;;;;;;;54.63;31.67;;;;;;;4.10;71.03;102339.75;5000888;28;96977;-80
2023/01/24 01:05:44;;;;;;;57.80;31.77;;;;;;;3.98;70.97;102337.72;5022475;27;97575;-81
2023/01/24 01:08:10;;;;;;;55.07;31.93;;;;;;;4.09;71.11;102351.88;5014101;27;101100;-79
2023/01/24 01:10:36;;;;;;;57.70;31.70;;;;;;;4.05;71.32;102346.56;5029557;27;96722;-79
2023/01/24 01:13:03;;;;;;;52.33;31.40;;;;;;;4.06;71.30;102353.50;5034109;27;97744;-79
2023/01/24 01:15:29;;;;;;;59.00;32.83;;;;;;;4.08;71.23;102347.53;5039252;27;101705;-80
2023/01/24 01:17:54;;;;;;;60.17;32.43;;;;;;;4.12;70.79;102355.38;4989546;28;102090;-81
2023/01/24 01:20:20;;;;;;;58.73;31.70;;;;;;;4.19;71.10;102357.28;5010875;27;99221;-80
2023/01/24 01:22:46;;;;;;;59.33;32.13;;;;;;;4.20;70.86;102351.25;4983405;28;98271;-80
2023/01/24 01:25:12;;;;;;;61.97;33.93;;;;;;;4.06;71.16;102324.94;5001932;28;101331;-81
2023/01/24 01:27:37;;;;;;;57.33;32.87;;;;;;;4.19;71.08;102349.47;4996444;28;101155;-82
2023/01/24 01:30:04;;;;;;;56.90;32.67;;;;;;;4.17;70.74;102351.19;5028822;27;96783;-81
2023/01/24 01:32:29;;;;;;;59.30;33.30;;;;;;;4.12;70.78;102345.00;5009961;28;97345;-80
2023/01/24 01:34:55;;;;;;;60.43;33.07;;;;;;;4.18;70.99;102353.81;4981606;28;102699;-80
2023/01/24 01:37:20;;;;;;;60.57;34.00;;;;;;;4.16;71.19;102355.50;4990902;28;101314;-79
2023/01/24 01:39:46;;;;;;;54.83;30.07;;;;;;;4.00;70.91;102343.84;4993235;28;96775;-79
2023/01/24 01:42:14;;;;;;;57.93;33.00;;;;;;;4.16;71.17;102360.72;5000889;28;96834;-79
2023/01/24 01:44:46;;;;;;;56.40;32.53;;;;;;;4.01;70.90;102336.91;5012461;28;101493;-79
2023/01/24 01:47:28;;;;;;;58.23;32.70;;;;;;;4.11;71.04;102357.13;5016239;28;98385;-81
2023/01/24 01:50:04;;;;;;;58.55;32.85;;;;;;;4.17;70.93;102353.78;5020092;27;96904;-80
2023/01/24 01:52:34;;;;;;;61.37;33.30;;;;;;;4.15;70.81;102353.75;5014163;28;97531;-80
2023/01/24 01:55:07;;;;;;;60.17;33.23;;;;;;;4.12;70.56;102345.88;4993140;28;101907;-79
2023/01/24 01:57:33;;;;;;;55.83;33.43;;;;;;;4.11;70.88;102349.31;4997553;28;98320;-80
2023/01/24 02:00:04;;;;;;;58.97;35.93;;;;;;;3.91;71.15;102327.16;4974011;28;97114;-80
2023/01/24 02:02:38;;;;;;;63.40;34.07;;;;;;;3.96;71.12;102338.53;5009623;28;96906;-81
2023/01/24 02:05:07;;;;;;;59.67;32.67;;;;;;;3.97;71.38;102341.16;4975076;28;101685;-81
2023/01/24 02:07:46;;;;;;;61.80;34.90;;;;;;;3.84;71.27;102315.72;4977346;28;101429;-80
2023/01/24 02:10:16;;;;;;;61.23;34.57;;;;;;;3.86;71.48;102327.03;4982355;28;96768;-79
2023/01/24 02:12:47;;;;;;;60.47;32.70;;;;;;;3.89;71.52;102319.31;5005133;28;97098;-79
2023/01/24 02:18:05;;;;;;;63.33;34.43;;;;;;;3.96;71.23;102323.81;5012636;28;98486;-79
2023/01/24 02:20:37;;;;;;;58.63;34.60;;;;;;;3.97;71.33;102332.50;5012240;27;97276;-79
2023/01/24 02:23:19;;;;;;;57.23;32.40;;;;;;;4.00;71.47;102333.44;5020850;27;97391;-80
2023/01/24 02:26:05;;;;;;;60.25;33.50;;;;;;;4.05;71.27;102328.38;4997143;27;101575;-80
2023/01/24 02:28:31;;;;;;;55.87;30.37;;;;;;;4.11;71.34;102330.25;5000764;27;101715;-79
2023/01/24 02:30:57;;;;;;;58.07;31.97;;;;;;;4.09;70.70;102315.47;5024785;27;97140;-80
2023/01/24 02:33:23;;;;;;;60.13;34.80;;;;;;;4.14;70.81;102322.53;5026603;27;97570;-81
2023/01/24 02:35:49;;;;;;;56.37;32.53;;;;;;;4.12;71.44;102319.00;5036065;27;97605;-80
2023/01/24 02:38:22;;;;;;;55.80;34.07;;;;;;;4.18;71.07;102320.00;5033188;27;97568;-79
2023/01/24 02:40:51;;;;;;;53.63;31.87;;;;;;;4.18;71.19;102317.41;5025127;27;97930;-79
2023/01/24 02:43:18;;;;;;;58.07;33.03;;;;;;;4.11;70.88;102297.34;5018314;27;97409;-79
2023/01/24 02:45:43;;;;;;;58.30;33.73;;;;;;;4.19;70.63;102319.19;5028842;27;98482;-81
2023/01/24 02:48:09;;;;;;;53.97;31.70;;;;;;;4.11;71.09;102299.94;5036093;27;101851;-83
2023/01/24 02:53:31;;;;;;;49.73;31.57;;;;;;;4.21;70.67;102319.22;5013706;27;97096;-82
2023/01/24 02:58:46;;;;;;;55.00;33.07;;;;;;;4.25;71.07;102315.88;5024749;27;100651;-79
2023/01/24 03:01:14;;;;;;;54.87;30.67;;;;;;;4.20;70.48;102296.66;5017329;27;96868;-82
2023/01/24 03:03:42;;;;;;;54.97;30.80;;;;;;;4.07;70.58;102283.38;5000283;27;96796;-80
2023/01/24 03:06:10;;;;;;;52.30;31.10;;;;;;;4.19;70.90;102316.59;5017104;27;102313;-83
2023/01/24 03:08:37;;;;;;;54.40;32.57;;;;;;;4.09;70.78;102309.41;5014786;27;98481;-82
2023/01/24 03:11:10;;;;;;;50.83;30.53;;;;;;;4.09;71.07;102325.00;5017045;27;97078;-84
2023/01/24 03:35:37;;;;;;;49.40;29.53;;;;;;;4.08;71.23;102329.31;5018659;28;97014;-80
2023/01/24 03:40:51;;;;;;;50.87;31.00;;;;;;;4.04;70.84;102327.50;5048267;27;101524;-79
2023/01/24 03:43:16;;;;;;;49.33;29.60;;;;;;;4.13;71.08;102336.34;4999472;28;97458;-79
2023/01/24 03:45:42;;;;;;;52.70;31.27;;;;;;;4.01;70.86;102314.41;5014239;27;96844;-82
2023/01/24 03:48:26;;;;;;;50.07;31.33;;;;;;;4.13;71.00;102329.44;5032707;27;99271;-82
2023/01/24 03:53:37;;;;;;;51.43;31.17;;;;;;;4.04;71.18;102306.72;5020173;27;97271;-80
2023/01/24 03:56:03;;;;;;;49.53;30.53;;;;;;;4.21;71.05;102332.22;5034143;27;97010;-80
2023/01/24 03:58:36;;;;;;;54.77;33.03;;;;;;;4.16;71.31;102326.00;5016899;27;101256;-80
2023/01/24 04:01:06;;;;;;;54.47;30.63;;;;;;;4.14;70.94;102323.41;5020432;28;99899;-79
2023/01/24 04:03:53;;;;;;;48.57;29.90;;;;;;;4.16;71.29;102332.13;5022063;27;97066;-80
2023/01/24 04:06:21;;;;;;;53.20;30.27;;;;;;;4.16;71.17;102332.13;5009746;27;97456;-81
2023/01/24 04:08:46;;;;;;;53.47;30.90;;;;;;;4.08;71.14;102339.72;5032699;27;103103;-80
2023/01/24 04:11:13;;;;;;;55.57;31.63;;;;;;;3.99;71.45;102330.81;5024860;28;101664;-82
2023/01/24 04:13:38;;;;;;;51.90;31.43;;;;;;;4.08;71.08;102338.84;5010235;27;98038;-79
2023/01/24 04:16:06;;;;;;;56.37;31.70;;;;;;;4.05;71.55;102330.97;5019301;27;97159;-80
2023/01/24 04:18:45;;;;;;;47.10;29.73;;;;;;;4.07;71.34;102340.56;5017806;27;101293;-79
2023/01/24 04:21:10;;;;;;;57.90;31.90;;;;;;;3.99;71.68;102316.09;4976960;28;101389;-79
2023/01/24 04:23:37;;;;;;;50.67;29.13;;;;;;;4.05;71.19;102329.25;4997950;28;98124;-79
2023/01/24 04:26:03;;;;;;;54.77;30.37;;;;;;;4.06;71.26;102322.31;5016339;28;96826;-80
2023/01/24 04:28:31;;;;;;;51.53;31.70;;;;;;;4.09;71.01;102328.47;4974712;28;100924;-81
2023/01/24 04:31:02;;;;;;;54.07;31.37;;;;;;;4.11;71.18;102333.72;5001779;28;100832;-81
2023/01/24 04:33:46;;;;;;;60.23;33.17;;;;;;;4.13;70.93;102338.94;5004171;28;97084;-81
2023/01/24 04:36:12;;;;;;;52.23;31.30;;;;;;;4.16;71.00;102337.31;4990324;28;97547;-80
2023/01/24 04:38:39;;;;;;;57.27;31.37;;;;;;;4.13;70.88;102342.44;5004204;28;101764;-78
2023/01/24 04:41:13;;;;;;;58.93;32.90;;;;;;;4.15;71.19;102350.25;4981235;28;100849;-82
2023/01/24 04:43:41;;;;;;;52.23;31.70;;;;;;;4.16;71.05;102352.00;4996232;28;96878;-79
2023/01/24 04:46:06;;;;;;;55.97;32.87;;;;;;;3.99;71.22;102325.63;4996985;28;96905;-80
2023/01/24 04:48:52;;;;;;;54.60;32.90;;;;;;;3.96;71.16;102329.03;4982561;28;101658;-82
2023/01/24 04:51:18;;;;;;;62.70;33.40;;;;;;;4.03;71.51;102337.84;4994825;28;101703;-79
2023/01/24 04:53:46;;;;;;;57.10;32.57;;;;;;;4.09;70.93;102348.38;4980988;27;96901;-79
2023/01/24 04:56:15;;;;;;;54.77;32.53;;;;;;;4.07;71.32;102345.78;4967879;28;97083;-81
2023/01/24 04:58:41;;;;;;;54.40;32.33;;;;;;;3.95;71.16;102322.06;4993443;28;101442;-79
2023/01/24 05:01:06;;;;;;;57.30;33.23;;;;;;;4.17;71.21;102359.88;4990774;27;101085;-80
2023/01/24 05:03:37;;;;;;;55.10;32.93;;;;;;;4.17;71.20;102359.88;5003072;27;96951;-79
2023/01/24 05:06:03;;;;;;;51.57;30.63;;;;;;;4.12;70.99;102350.19;4998701;28;97087;-78
2023/01/24 05:08:32;;;;;;;54.67;32.07;;;;;;;4.07;71.21;102353.56;4997699;28;101791;-80
2023/01/24 05:11:02;;;;;;;53.57;31.33;;;;;;;4.03;71.24;102341.31;5001452;28;100671;-81
2023/01/24 05:13:31;;;;;;;53.77;31.93;;;;;;;4.05;71.18;102363.03;4997489;28;97137;-82
2023/01/24 05:15:57;;;;;;;57.10;30.80;;;;;;;4.04;71.08;102365.59;4980805;28;97271;-79
2023/01/24 05:18:23;;;;;;;57.50;32.60;;;;;;;3.78;71.34;102331.13;4982551;28;101710;-79
2023/01/24 05:20:48;;;;;;;54.40;31.77;;;;;;;3.91;71.68;102359.22;5003688;27;97482;-79
2023/01/24 05:23:14;;;;;;;58.20;32.27;;;;;;;3.91;71.45;102356.59;5026218;27;97335;-82
2023/01/24 05:25:44;;;;;;;53.70;30.10;;;;;;;4.03;71.59;102363.84;4988810;28;97555;-80
2023/01/24 05:28:10;;;;;;;60.77;33.90;;;;;;;4.03;71.35;102366.44;5002992;27;100369;-83
2023/01/24 05:30:40;;;;;;;53.73;31.77;;;;;;;3.91;71.51;102345.34;5024039;27;100866;-80
2023/01/24 05:33:17;;;;;;;52.50;29.27;;;;;;;4.08;71.27;102377.84;5023939;27;96748;-80
2023/01/24 05:35:44;;;;;;;51.63;30.60;;;;;;;3.94;71.19;102348.88;5025544;27;96963;-80
2023/01/24 05:38:11;;;;;;;50.33;31.60;;;;;;;3.88;71.63;102350.47;4998093;27;101832;-81
2023/01/24 05:40:38;;;;;;;52.50;31.97;;;;;;;3.97;71.48;102374.94;5021916;27;100818;-81
2023/01/24 05:43:05;;;;;;;57.57;32.30;;;;;;;3.91;71.40;102366.13;5012842;28;98006;-79
2023/01/24 05:45:31;;;;;;;54.80;31.73;;;;;;;3.96;71.25;102367.13;5026033;27;97247;-80
2023/01/24 05:47:57;;;;;;;56.10;31.57;;;;;;;4.05;71.44;102375.16;4992840;27;100952;-79
2023/01/24 05:50:23;;;;;;;49.43;29.50;;;;;;;4.08;70.99;102373.50;5020227;27;101316;-81
2023/01/24 05:53:08;;;;;;;54.83;32.00;;;;;;;4.05;71.07;102380.34;5017986;27;96774;-78
2023/01/24 05:55:34;;;;;;;52.73;31.13;;;;;;;3.98;71.30;102375.81;5018410;27;96931;-79
2023/01/24 05:58:00;;;;;;;49.30;29.83;;;;;;;3.95;71.50;102375.75;4998643;27;101114;-80
2023/01/24 06:00:48;;;;;;;49.87;30.40;;;;;;;4.01;71.34;102381.09;5019092;27;97456;-79
2023/01/24 06:03:37;;;;;;;52.20;31.00;;;;;;;4.01;71.53;102375.91;5024383;27;97743;-80
2023/01/24 06:06:03;;;;;;;50.97;28.90;;;;;;;4.07;71.54;102386.44;5001768;27;97791;-82
2023/01/24 06:08:29;;;;;;;51.57;29.63;;;;;;;4.12;71.05;102391.78;5019040;27;101346;-79
2023/01/24 06:10:55;;;;;;;48.40;29.07;;;;;;;4.14;71.05;102396.19;5008194;27;101246;-81
2023/01/24 06:13:22;;;;;;;51.93;29.77;;;;;;;4.04;71.26;102389.88;4999161;27;97279;-81
2023/01/24 06:15:47;;;;;;;50.73;30.37;;;;;;;4.01;71.48;102386.28;5001125;27;97356;-80
2023/01/24 06:18:15;;;;;;;59.37;30.47;;;;;;;4.02;71.23;102390.69;5018178;27;101268;-81
2023/01/24 06:20:42;;;;;;;46.97;28.90;;;;;;;3.95;71.15;102380.94;5053165;27;101304;-82
2023/01/24 06:23:17;;;;;;;50.20;28.33;;;;;;;4.04;71.07;102392.47;5001161;27;96918;-79
2023/01/24 06:25:43;;;;;;;54.73;31.33;;;;;;;3.74;71.24;102352.69;5001141;27;97442;-83
2023/01/24 06:28:09;;;;;;;50.20;29.17;;;;;;;3.86;71.50;102374.66;5015351;27;101798;-81
2023/01/24 06:30:34;;;;;;;48.40;28.90;;;;;;;3.96;71.38;102383.59;5004230;27;101053;-84
2023/01/24 06:33:23;;;;;;;51.00;28.97;;;;;;;3.94;71.41;102379.19;5009629;27;97059;-84
2023/01/24 06:36:18;;;;;;;47.13;28.77;;;;;;;3.99;71.47;102395.81;5038291;27;97347;-84
2023/01/24 06:38:44;;;;;;;50.93;27.87;;;;;;;4.02;71.59;102406.28;5028460;27;100288;-84
2023/01/24 06:41:17;;;;;;;49.10;29.40;;;;;;;3.99;71.28;102401.00;5045378;27;97987;-84
2023/01/24 06:43:44;;;;;;;47.60;29.10;;;;;;;4.05;71.50;102414.16;4999478;28;97435;-84
2023/01/24 06:46:11;;;;;;;50.90;29.63;;;;;;;3.98;71.27;102391.41;5027294;27;97259;-84
2023/01/24 06:48:36;;;;;;;54.13;30.00;;;;;;;4.02;71.29;102404.53;5012515;27;99498;-84
2023/01/24 06:51:02;;;;;;;53.37;30.63;;;;;;;3.95;71.15;102401.72;5024689;27;100956;-84
2023/01/24 06:53:27;;;;;;;51.00;29.37;;;;;;;4.00;71.19;102414.00;4981331;27;97258;-84
2023/01/24 06:55:53;;;;;;;48.17;28.83;;;;;;;4.06;71.55;102423.69;5016233;27;97483;-84
2023/01/24 06:58:18;;;;;;;51.20;29.73;;;;;;;4.07;71.30;102426.34;5029480;27;97604;-84
2023/01/24 07:00:44;;;;;;;49.60;30.13;;;;;;;4.08;71.27;102425.50;5013454;27;101379;-84
2023/01/24 07:03:10;;;;;;;49.37;28.87;;;;;;;4.06;70.63;102423.69;5015869;27;96951;-84
2023/01/24 07:05:36;;;;;;;47.17;29.13;;;;;;;3.99;71.67;102425.25;5012726;27;97999;-84
2023/01/24 07:08:03;;;;;;;52.37;30.73;;;;;;;4.05;71.32;102434.94;5034448;27;97672;-84
2023/01/24 07:10:29;;;;;;;56.50;31.23;;;;;;;4.04;71.30;102428.88;5017584;27;101284;-83
2023/01/24 07:12:55;;;;;;;57.87;30.97;;;;;;;4.00;71.05;102424.41;5017635;27;98175;-83
2023/01/24 07:15:20;;;;;;;55.40;29.90;;;;;;;4.04;71.02;102430.56;5034185;27;96981;-83
2023/01/24 07:17:46;;;;;;;54.97;31.03;;;;;;;3.89;71.32;102406.78;5015814;27;101240;-83
2023/01/24 07:20:13;;;;;;;51.03;29.00;;;;;;;4.04;71.11;102428.88;5026483;27;101107;-83
2023/01/24 07:22:39;;;;;;;51.87;30.47;;;;;;;4.06;71.23;102427.16;4991705;27;97493;-84
2023/01/24 07:25:11;;;;;;;50.50;29.77;;;;;;;4.06;71.00;102423.69;5023850;27;96806;-84
2023/01/24 07:27:36;;;;;;;51.50;29.60;;;;;;;4.04;71.08;102421.06;5021900;27;101535;-84
2023/01/24 07:30:04;;;;;;;48.30;29.20;;;;;;;4.01;71.02;102420.97;5017838;27;99707;-84
2023/01/24 07:32:29;;;;;;;52.00;29.80;;;;;;;3.99;71.28;102414.00;5014607;27;97202;-84
2023/01/24 07:34:55;;;;;;;50.73;29.67;;;;;;;3.98;71.01;102430.41;5029699;27;97006;-84
2023/01/24 07:37:22;;;;;;;49.00;28.73;;;;;;;3.98;71.50;102441.66;4995707;27;101291;-84
2023/01/24 07:39:48;;;;;;;47.97;28.47;;;;;;;3.96;71.39;102427.78;5021072;27;99542;-79
2023/01/24 07:42:14;;;;;;;52.60;29.73;;;;;;;4.09;71.13;102439.38;5009367;28;97180;-78
2023/01/24 07:44:40;;;;;;;50.67;30.43;;;;;;;4.14;71.00;102442.09;4997823;27;97406;-78
2023/01/24 07:47:05;;;;;;;50.20;29.37;;;;;;;3.99;71.03;102420.06;5020313;27;101435;-79
2023/01/24 07:49:31;;;;;;;51.80;29.53;;;;;;;4.05;70.89;102434.94;5009267;27;100624;-78
2023/01/24 07:51:56;;;;;;;53.30;29.13;;;;;;;4.07;70.57;102447.13;4988670;27;97736;-79
2023/01/24 07:54:22;;;;;;;52.87;30.53;;;;;;;3.99;71.40;102433.06;5005416;27;97663;-81
2023/01/24 07:56:48;;;;;;;51.70;29.83;;;;;;;4.09;71.25;102448.03;5016829;27;101499;-78
2023/01/24 07:59:14;;;;;;;49.27;28.23;;;;;;;4.05;70.84;102430.63;5038169;27;97929;-79
2023/01/24 08:01:40;;;;;;;48.73;29.07;;;;;;;4.14;70.96;102439.50;5001178;27;96756;-78
2023/01/24 08:04:05;;;;;;;49.80;30.33;;;;;;;4.12;71.12;102434.25;5029565;27;97263;-78
2023/01/24 08:06:31;;;;;;;51.70;31.27;;;;;;;4.23;70.77;102450.13;5006800;27;98474;-79
2023/01/24 08:08:57;;;;;;;53.03;29.87;;;;;;;4.28;70.78;102443.34;5050646;27;101358;-85
2023/01/24 08:11:22;;;;;;;54.73;30.67;;;;;;;4.17;70.77;102439.56;5009987;27;97331;-89
2023/01/24 08:13:49;;;;;;;48.30;28.63;;;;;;;4.15;70.67;102433.44;5015149;27;96800;-87
2023/01/24 08:16:15;;;;;;;53.17;30.87;;;;;;;4.03;70.68;102427.09;4997100;27;101136;-87
2023/01/24 08:18:43;;;;;;;58.07;31.77;;;;;;;4.19;70.50;102446.59;4999742;27;100216;-87
2023/01/24 08:21:09;;;;;;;48.93;29.47;;;;;;;4.22;70.82;102445.78;5012675;27;96932;-87
2023/01/24 08:23:34;;;;;;;53.37;30.50;;;;;;;4.26;70.58;102445.00;4993324;27;97544;-87
2023/01/24 08:26:01;;;;;;;50.90;29.70;;;;;;;4.20;70.67;102444.84;5017875;27;100912;-86
2023/01/24 08:28:27;;;;;;;53.67;31.43;;;;;;;4.16;70.89;102448.19;4996732;27;101574;-86
2023/01/24 08:30:53;;;;;;;55.00;30.77;;;;;;;4.04;70.70;102422.75;5028420;27;98329;-86
2023/01/24 08:33:18;;;;;;;54.33;30.57;;;;;;;3.79;70.81;102385.75;4999281;27;98071;-87
2023/01/24 08:35:45;;;;;;;54.73;31.00;;;;;;;4.21;70.76;102454.41;5006563;27;101596;-87
2023/01/24 08:38:15;;;;;;;50.17;29.93;;;;;;;4.18;70.83;102451.72;5039595;27;101159;-88
2023/01/24 08:40:41;;;;;;;51.93;31.33;;;;;;;4.22;70.96;102454.47;5014168;27;96870;-89
2023/01/24 08:43:07;;;;;;;52.10;29.57;;;;;;;3.90;70.65;102387.72;5005071;27;97017;-87
2023/01/24 08:45:32;;;;;;;54.63;31.43;;;;;;;4.07;70.84;102417.63;5020445;28;101024;-87
2023/01/24 08:47:58;;;;;;;54.40;31.70;;;;;;;4.14;70.77;102422.19;5008985;27;100379;-87
2023/01/24 08:50:24;;;;;;;58.57;33.10;;;;;;;4.38;70.49;102455.72;5041764;27;96826;-83
2023/01/24 08:52:53;;;;;;;49.33;29.93;;;;;;;4.13;70.85;102429.91;5019550;27;96927;-85
2023/01/24 08:55:19;;;;;;;52.57;31.30;;;;;;;4.26;70.85;102455.41;5000349;27;101173;-84
2023/01/24 08:57:44;;;;;;;50.83;28.43;;;;;;;4.21;70.79;102455.28;5013470;28;101526;-84
2023/01/24 09:00:11;;;;;;;51.73;31.83;;;;;;;4.17;70.93;102436.97;4987359;27;96772;-84
2023/01/24 09:02:37;;;;;;;49.50;29.73;;;;;;;4.29;70.94;102458.09;5011734;27;97249;-84
2023/01/24 09:05:04;;;;;;;55.17;30.57;;;;;;;4.28;70.79;102462.41;5003508;27;100991;-85
2023/01/24 09:07:31;;;;;;;57.13;29.33;;;;;;;4.31;70.98;102462.50;5014895;27;101662;-83
2023/01/24 09:09:56;;;;;;;50.97;30.40;;;;;;;4.29;70.50;102460.69;5018158;27;97311;-84
2023/01/24 09:12:22;;;;;;;52.03;30.27;;;;;;;4.26;70.86;102461.47;5023046;27;97511;-84
2023/01/24 09:14:47;;;;;;;53.30;31.17;;;;;;;4.30;70.93;102473.75;5020394;27;98495;-84
2023/01/24 09:17:13;;;;;;;51.60;30.30;;;;;;;4.19;70.95;102463.88;5018620;27;101304;-84
2023/01/24 09:19:38;;;;;;;52.50;30.43;;;;;;;4.23;70.99;102464.00;5033409;27;97789;-84
2023/01/24 09:22:04;;;;;;;55.43;31.13;;;;;;;4.31;71.17;102465.09;4988264;28;98603;-84
2023/01/24 09:24:29;;;;;;;57.47;30.50;;;;;;;4.34;70.74;102473.81;5018965;27;100891;-83
2023/01/24 09:26:55;;;;;;;53.17;29.80;;;;;;;4.38;70.85;102475.66;4984350;28;101032;-83
2023/01/24 09:29:21;;;;;;;57.60;33.30;;;;;;;4.40;70.70;102480.06;5029128;27;97264;-84
2023/01/24 09:31:48;;;;;;;53.77;29.20;;;;;;;4.40;70.99;102474.84;5002348;28;96846;-83
2023/01/24 09:34:13;;;;;;;53.33;31.17;;;;;;;4.37;70.77;102476.50;4994062;28;101300;-83
2023/01/24 09:36:39;;;;;;;55.43;31.63;;;;;;;4.40;70.85;102479.19;4998617;28;101540;-84
2023/01/24 09:39:05;;;;;;;53.60;31.73;;;;;;;4.42;71.04;102480.97;5002285;28;97386;-83
2023/01/24 09:41:33;;;;;;;55.50;31.63;;;;;;;4.42;70.87;102475.78;4980445;28;97161;-83
2023/01/24 09:44:00;;;;;;;56.30;31.77;;;;;;;4.46;70.70;102475.00;5010364;27;102339;-84
2023/01/24 09:46:48;;;;;;;54.77;31.07;;;;;;;4.48;70.64;102475.03;4999786;28;101558;-84
2023/01/24 09:49:20;;;;;;;57.87;32.83;;;;;;;4.53;71.15;102466.50;5001695;28;97442;-84
2023/01/24 09:51:47;;;;;;;;;;;;;;;4.57;70.65;102476.97;5021727;27;98111;-83
2023/01/24 09:54:30;;;;;;;53.93;30.77;;;;;;;4.53;70.61;102470.81;4996662;28;101093;-85
2023/01/24 09:56:56;;;;;;;52.43;30.20;;;;;;;4.46;70.78;102462.00;5013390;28;97926;-84
2023/01/24 09:59:30;;;;;;;52.60;30.73;;;;;;;4.42;70.82;102446.25;4981422;28;97290;-83
2023/01/24 10:01:56;;;;;;;53.13;30.30;;;;;;;4.47;70.65;102463.75;4996057;28;96889;-83
2023/01/24 10:04:34;;;;;;;57.13;32.77;;;;;;;4.42;71.02;102451.47;5036831;27;101800;-83
2023/01/24 10:07:28;;;;;;;53.57;30.63;;;;;;;4.53;70.55;102460.41;5030660;27;101043;-84
2023/01/24 10:10:03;;;;;;;55.90;31.03;;;;;;;4.59;70.71;102454.50;5039203;27;96829;-83
2023/01/24 10:12:41;;;;;;;52.80;30.97;;;;;;;4.62;70.50;102455.44;5006136;28;98115;-84
2023/01/24 10:15:26;;;;;;;52.33;30.10;;;;;;;4.66;70.75;102449.50;5041138;27;101413;-84
2023/01/24 10:18:10;;;;;;;47.93;27.73;;;;;;;4.76;70.40;102445.38;4994376;28;101427;-83
2023/01/24 10:20:53;;;;;;;54.03;30.57;;;;;;;4.81;70.16;102442.88;5029243;27;97229;-84
2023/01/24 10:23:23;;;;;;;50.47;30.67;;;;;;;4.90;69.87;102441.38;4992646;28;97116;-83
2023/01/24 10:25:51;;;;;;;57.63;30.97;;;;;;;4.80;69.97;102423.81;5001630;28;101507;-84
2023/01/24 10:28:33;;;;;;;50.03;30.30;;;;;;;4.93;69.93;102440.56;5022712;28;101510;-84
2023/01/24 10:31:14;;;;;;;50.43;28.73;;;;;;;4.96;69.86;102443.22;5024820;28;96827;-83
2023/01/24 10:33:47;;;;;;;43.90;27.20;;;;;;;4.89;69.62;102434.41;5009247;28;97422;-82
2023/01/24 10:36:51;;;;;;;58.60;32.07;;;;;;;4.83;69.76;102430.78;5013824;28;99407;-83
2023/01/24 10:39:17;;;;;;;50.50;28.53;;;;;;;4.87;70.05;102430.00;4955404;28;97823;-81
2023/01/24 10:41:42;;;;;;;48.77;28.20;;;;;;;4.89;69.91;102434.41;5001921;28;97605;-84
2023/01/24 10:44:18;;;;;;;50.23;28.37;;;;;;;4.89;69.76;102434.41;4998995;28;97343;-82
2023/01/24 10:46:47;;;;;;;47.70;27.87;;;;;;;4.80;70.61;102426.41;4985079;28;102206;-79
2023/01/24 10:49:23;;;;;;;48.37;29.60;;;;;;;4.86;69.99;102433.44;4972859;28;101494;-81
2023/01/24 10:52:09;;;;;;;53.07;30.80;;;;;;;4.85;70.10;102435.16;5014232;28;96806;-78
2023/01/24 10:54:46;;;;;;;51.97;29.73;;;;;;;4.75;70.58;102415.00;4991672;28;97057;-80
2023/01/24 10:57:20;;;;;;;54.10;29.63;;;;;;;4.84;70.31;102424.75;5017629;28;101327;-80
2023/01/24 10:59:46;;;;;;;57.33;30.33;;;;;;;4.82;70.31;102419.50;4994094;27;101137;-80
2023/01/24 11:02:20;;;;;;;48.57;27.67;;;;;;;4.81;70.29;102407.34;5024307;28;102113;-82
2023/01/24 11:04:46;;;;;;;47.97;28.50;;;;;;;4.93;70.26;102415.41;5007751;28;97229;-80
2023/01/24 11:07:49;;;;;;;51.47;29.10;;;;;;;4.99;70.44;102412.06;5001528;28;98070;-82
2023/01/24 11:10:24;;;;;;;43.93;27.23;;;;;;;5.07;70.01;102415.72;4919717;28;100239;-83
2023/01/24 11:12:56;;;;;;;51.63;28.37;;;;;;;5.08;69.80;102417.47;4984894;28;99333;-83
2023/01/24 11:15:30;;;;;;;50.20;28.83;;;;;;;5.07;69.92;102405.31;4995454;28;97643;-82
2023/01/24 11:18:06;;;;;;;45.80;28.73;;;;;;;5.14;69.71;102409.78;5003305;28;101172;-83
2023/01/24 11:20:33;;;;;;;55.87;29.97;;;;;;;5.14;69.84;102403.72;4996990;27;101913;-83
2023/01/24 11:23:17;;;;;;;51.33;30.13;;;;;;;5.15;70.09;102403.75;4983807;28;97202;-82
2023/01/24 11:25:58;;;;;;;50.53;29.97;;;;;;;5.09;69.92;102401.03;5006611;28;97161;-83
2023/01/24 11:28:35;;;;;;;54.23;29.53;;;;;;;5.13;69.85;102408.03;4979807;28;101402;-82
2023/01/24 11:31:06;;;;;;;48.83;29.33;;;;;;;5.14;69.91;102407.19;5008398;28;101126;-82
2023/01/24 11:34:09;;;;;;;49.13;27.77;;;;;;;5.14;69.58;102404.59;5000543;28;97219;-83
2023/01/24 11:36:46;;;;;;;43.73;26.93;;;;;;;5.17;69.88;102398.56;5016143;28;97260;-85
2023/01/24 11:39:34;;;;;;;50.40;30.17;;;;;;;5.20;70.05;102406.44;5014882;28;101162;-83
2023/01/24 11:42:23;;;;;;;53.13;28.00;;;;;;;5.31;69.72;102396.25;4993948;28;97539;-81
2023/01/24 11:44:54;;;;;;;47.03;28.53;;;;;;;5.24;69.64;102397.88;5017738;28;98008;-83
2023/01/24 11:47:22;;;;;;;50.35;28.90;;;;;;;5.20;70.15;102396.91;4984368;28;96941;-85
2023/01/24 11:50:06;;;;;;;45.13;28.17;;;;;;;5.20;69.71;102391.69;4997362;27;101740;-84
2023/01/24 11:52:32;;;;;;;45.53;26.70;;;;;;;5.22;69.71;102395.22;5036831;27;101936;-85
2023/01/24 11:55:18;;;;;;;44.50;27.83;;;;;;;5.28;69.49;102409.22;5008252;28;97404;-81
2023/01/24 11:57:55;;;;;;;50.07;29.70;;;;;;;5.29;69.67;102403.16;4987866;27;97095;-82
2023/01/24 12:00:31;;;;;;;50.60;29.53;;;;;;;5.27;69.73;102410.06;5030339;27;98202;-82
2023/01/24 12:03:00;;;;;;;49.40;28.63;;;;;;;5.27;69.92;102410.94;5002063;28;101002;-83